Time;durP1;ratioP1;P1;durP2;ratioP2;P2;SDS_P1;SDS_P2;PMS_P1;PMS_P2;Temp;Humidity;BMP_temperature;BMP_pressure;BME280_temperature;BME280_humidity;BME280_pressure;Samples;Min_cycle;Max_cycle;Signal;HPM_P1;HPM_P2
2020/12/18 00:01:06;;;;;;;66.87;25.70;;;;;;;15.06;57.96;155075.47;1710215;82;21186;-71
2020/12/18 00:03:39;;;;;;;73.40;27.50;;;;;;;15.13;57.83;155093.92;1691931;83;21387;-72
2020/12/18 00:06:11;;;;;;;67.27;24.07;;;;;;;15.10;57.86;155086.02;1643610;86;21212;-71
2020/12/18 00:08:46;;;;;;;70.08;24.45;;;;;;;15.05;57.79;155074.19;1643514;86;21361;-72
2020/12/18 00:11:25;;;;;;;59.98;23.42;;;;;;;15.13;57.71;155095.22;1646844;84;21401;-71
2020/12/18 00:13:57;;;;;;;64.12;23.20;;;;;;;15.12;57.56;155091.30;1693562;83;21368;-70
2020/12/18 00:16:32;;;;;;;58.20;22.95;;;;;;;15.10;57.78;155087.36;1717885;83;21248;-71
2020/12/18 00:19:04;;;;;;;70.97;25.65;;;;;;;15.00;57.89;155059.70;1718007;82;21309;-70
2020/12/18 00:21:36;;;;;;;58.55;22.73;;;;;;;14.95;57.69;155046.52;1716537;83;21197;-70
2020/12/18 00:24:08;;;;;;;64.72;23.70;;;;;;;14.85;58.08;155020.20;1718180;83;21193;-71
2020/12/18 00:26:41;;;;;;;62.15;23.42;;;;;;;14.96;57.94;155050.50;1718193;83;21340;-72
2020/12/18 00:29:13;;;;;;;68.80;25.82;;;;;;;15.01;58.06;155062.34;1718041;82;21800;-71
2020/12/18 00:31:46;;;;;;;77.70;24.47;;;;;;;15.10;57.73;155087.36;1717180;83;21193;-71
2020/12/18 00:34:18;;;;;;;64.58;24.40;;;;;;;15.07;57.79;155078.11;1717462;83;21217;-71
2020/12/18 00:36:54;;;;;;;64.80;24.52;;;;;;;15.05;57.73;155074.19;1717914;83;21201;-72
2020/12/18 00:39:26;;;;;;;52.38;21.95;;;;;;;14.91;57.98;155036.03;1717933;82;21696;-71
2020/12/18 00:41:59;;;;;;;56.35;21.75;;;;;;;14.93;57.77;155042.59;1718416;83;21327;-71
2020/12/18 00:44:31;;;;;;;58.52;22.25;;;;;;;14.84;58.03;155018.91;1712905;82;21202;-71
2020/12/18 00:47:03;;;;;;;51.18;20.90;;;;;;;14.72;59.38;154987.34;1712677;84;21333;-71
2020/12/18 00:49:36;;;;;;;66.30;22.80;;;;;;;14.68;58.94;154975.50;1712613;84;21198;-71
2020/12/18 00:52:08;;;;;;;59.53;23.67;;;;;;;14.66;58.98;154971.52;1711994;84;21836;-71
2020/12/18 00:54:41;;;;;;;57.10;22.22;;;;;;;14.62;59.22;154959.69;1712864;84;21340;-71
2020/12/18 00:57:14;;;;;;;50.38;20.25;;;;;;;14.62;59.47;154959.69;1712756;82;21807;-71
2020/12/18 00:59:46;;;;;;;58.42;20.65;;;;;;;14.62;59.26;154959.69;1712656;83;21348;-71
2020/12/18 01:02:20;;;;;;;51.00;20.15;;;;;;;14.66;59.29;154970.23;1657662;85;21196;-72
2020/12/18 01:04:54;;;;;;;54.40;20.75;;;;;;;14.88;58.73;155028.12;1712707;84;21336;-71
2020/12/18 01:07:26;;;;;;;50.45;20.48;;;;;;;14.96;58.41;155050.50;1684091;85;21396;-71
2020/12/18 01:09:59;;;;;;;55.20;20.55;;;;;;;15.07;58.30;155078.11;1684144;84;21194;-71
2020/12/18 01:12:32;;;;;;;50.40;19.07;;;;;;;15.16;58.21;155101.84;1682060;84;21689;-71
2020/12/18 01:15:05;;;;;;;53.70;19.92;;;;;;;15.19;58.12;155111.03;1712813;84;21202;-71
2020/12/18 01:17:39;;;;;;;53.17;20.62;;;;;;;15.13;58.14;155093.92;1712935;84;21344;-71
2020/12/18 01:20:12;;;;;;;61.63;22.58;;;;;;;15.09;58.28;155084.72;1684124;85;21193;-71
2020/12/18 01:22:45;;;;;;;61.42;22.75;;;;;;;15.18;58.14;155108.41;1697451;84;21344;-71
2020/12/18 01:25:19;;;;;;;52.45;19.55;;;;;;;15.24;57.95;155122.88;1682387;85;21265;-71
2020/12/18 01:27:52;;;;;;;46.85;19.23;;;;;;;15.25;57.67;155126.86;1682750;84;21745;-71
2020/12/18 01:30:24;;;;;;;54.30;19.37;;;;;;;15.19;57.71;155109.70;1688037;82;21367;-71
2020/12/18 01:32:57;;;;;;;47.83;20.35;;;;;;;15.08;58.05;155082.09;1690700;84;21190;-72
2020/12/18 01:35:30;;;;;;;48.85;19.65;;;;;;;14.92;58.07;155039.95;1712459;84;21388;-71
2020/12/18 01:38:04;;;;;;;47.93;19.23;;;;;;;14.48;58.78;154924.19;1712789;84;21190;-71
2020/12/18 01:40:37;;;;;;;47.27;19.27;;;;;;;14.38;60.05;154896.55;1712604;84;21713;-71
2020/12/18 01:43:12;;;;;;;52.70;21.42;;;;;;;14.44;59.87;154912.36;1711671;83;21266;-71
2020/12/18 01:45:46;;;;;;;52.48;19.73;;;;;;;14.54;59.63;154938.66;1712777;84;21344;-71
2020/12/18 01:48:20;;;;;;;46.90;18.52;;;;;;;14.67;59.35;154972.88;1712844;84;21163;-71
2020/12/18 01:50:54;;;;;;;50.40;19.48;;;;;;;14.72;59.49;154986.00;1712095;84;21780;-71
2020/12/18 01:53:28;;;;;;;52.05;20.12;;;;;;;14.79;59.68;155004.44;1681024;85;21711;-71
2020/12/18 01:56:19;;;;;;;46.68;18.70;;;;;;;14.79;59.61;155005.73;1713024;84;21361;-71
2020/12/18 01:58:54;;;;;;;48.33;18.50;;;;;;;14.85;59.26;155020.20;1712615;82;21384;-71
2020/12/18 02:01:28;;;;;;;46.20;19.27;;;;;;;14.83;59.32;155016.28;1709452;82;21174;-71
2020/12/18 02:04:05;;;;;;;51.10;18.77;;;;;;;14.91;59.08;155036.03;1684164;85;21210;-71
2020/12/18 02:06:39;;;;;;;49.98;18.30;;;;;;;14.91;58.89;155037.31;1684081;85;21431;-71
2020/12/18 02:09:13;;;;;;;47.75;19.05;;;;;;;14.85;58.74;155021.56;1708578;83;21376;-70
2020/12/18 02:11:47;;;;;;;55.55;19.25;;;;;;;14.70;58.75;154980.72;1712441;84;21400;-70
2020/12/18 02:14:21;;;;;;;52.45;20.65;;;;;;;14.60;59.00;154954.41;1712410;84;21445;-70
2020/12/18 02:16:55;;;;;;;47.43;18.42;;;;;;;14.65;58.82;154967.59;1712681;84;21336;-71
2020/12/18 02:19:43;;;;;;;48.13;18.77;;;;;;;14.69;58.71;154979.44;1712350;84;21338;-70
2020/12/18 02:22:20;;;;;;;50.17;18.25;;;;;;;14.40;58.86;154900.53;1712645;84;21158;-71
2020/12/18 02:25:08;;;;;;;48.30;18.45;;;;;;;14.65;58.46;154967.59;1712300;84;21704;-71
2020/12/18 02:27:41;;;;;;;45.88;19.25;;;;;;;14.71;58.27;154983.36;1711919;84;21316;-71
2020/12/18 02:30:15;;;;;;;45.12;18.23;;;;;;;14.85;57.99;155020.20;1680982;85;21390;-71
2020/12/18 02:33:09;;;;;;;45.80;17.92;;;;;;;14.82;57.88;155013.64;1712662;84;21242;-71
2020/12/18 02:35:42;;;;;;;37.50;16.00;;;;;;;14.80;57.86;155007.08;1711562;84;21155;-70
2020/12/18 02:38:15;;;;;;;43.28;16.55;;;;;;;14.84;57.72;155017.58;1712738;84;21332;-71
2020/12/18 02:40:48;;;;;;;43.40;17.23;;;;;;;14.89;57.57;155032.05;1712371;84;21242;-71
2020/12/18 02:43:25;;;;;;;43.35;17.77;;;;;;;14.87;57.73;155025.48;1706895;83;21693;-71
2020/12/18 02:45:58;;;;;;;33.13;15.25;;;;;;;14.87;57.75;155026.78;1727918;82;21220;-71
2020/12/18 02:48:32;;;;;;;38.38;16.32;;;;;;;14.87;57.86;155026.78;1723535;82;21711;-71
2020/12/18 02:51:09;;;;;;;44.50;17.57;;;;;;;14.86;57.58;155022.84;1725949;83;21185;-71
2020/12/18 02:53:44;;;;;;;40.52;16.42;;;;;;;14.88;57.70;155028.12;1727830;83;21193;-71
2020/12/18 02:56:28;;;;;;;40.50;16.67;;;;;;;14.89;57.44;155032.05;1701579;83;21209;-71
2020/12/18 02:59:06;;;;;;;40.28;16.95;;;;;;;14.80;57.51;155008.38;1688454;83;21680;-71
2020/12/18 03:01:38;;;;;;;42.40;16.37;;;;;;;14.81;57.32;155009.72;1727989;83;21193;-72
2020/12/18 03:04:11;;;;;;;39.58;17.05;;;;;;;14.71;57.52;154983.36;1728094;81;21925;-72
2020/12/18 03:06:45;;;;;;;37.90;16.12;;;;;;;14.66;57.46;154971.52;1710802;83;21703;-72
2020/12/18 03:09:18;;;;;;;45.03;17.77;;;;;;;14.66;57.45;154970.23;1697639;84;21249;-71
2020/12/18 03:11:51;;;;;;;41.68;17.35;;;;;;;14.60;57.35;154954.41;1720111;83;21197;-72
2020/12/18 03:14:23;;;;;;;40.43;18.17;;;;;;;14.54;58.01;154939.94;1727977;81;21221;-72
2020/12/18 03:16:58;;;;;;;38.48;15.72;;;;;;;14.51;58.01;154930.75;1726047;81;21200;-72
2020/12/18 03:19:32;;;;;;;46.05;18.23;;;;;;;14.50;57.91;154929.45;1726712;83;21197;-72
2020/12/18 03:22:06;;;;;;;40.67;17.52;;;;;;;14.46;58.07;154918.92;1726813;82;21185;-72
2020/12/18 03:24:53;;;;;;;39.38;15.75;;;;;;;14.46;58.46;154918.92;1724521;82;21669;-72
2020/12/18 03:27:42;;;;;;;40.55;16.45;;;;;;;14.46;58.40;154917.63;1700138;83;21863;-71
2020/12/18 03:30:15;;;;;;;41.45;18.35;;;;;;;14.47;58.71;154921.55;1727351;83;21193;-71
2020/12/18 03:32:49;;;;;;;43.40;17.90;;;;;;;14.64;58.03;154964.97;1701728;83;21339;-71
2020/12/18 03:35:23;;;;;;;42.85;17.17;;;;;;;14.69;57.80;154979.44;1728014;82;21743;-71
2020/12/18 03:37:55;;;;;;;42.08;16.60;;;;;;;14.72;57.70;154986.00;1727512;81;21173;-71
2020/12/18 03:40:29;;;;;;;41.02;17.10;;;;;;;14.60;57.91;154954.41;1727835;83;21287;-71
2020/12/18 03:43:03;;;;;;;45.10;18.45;;;;;;;14.49;57.76;154925.48;1725449;83;21256;-71
2020/12/18 03:45:37;;;;;;;43.05;17.57;;;;;;;14.50;57.82;154928.13;1718234;81;21324;-71
2020/12/18 03:48:11;;;;;;;43.00;17.85;;;;;;;14.51;57.79;154930.75;1707338;83;21194;-71
2020/12/18 03:50:45;;;;;;;39.25;17.48;;;;;;;14.54;57.68;154938.66;1677972;85;21240;-71
2020/12/18 03:53:19;;;;;;;39.60;16.35;;;;;;;14.54;57.54;154939.94;1712052;84;21183;-71
2020/12/18 03:55:54;;;;;;;42.15;16.35;;;;;;;14.55;57.42;154941.30;1711058;84;21186;-71
2020/12/18 03:58:30;;;;;;;40.67;16.20;;;;;;;14.51;57.53;154930.75;1711165;83;21328;-71
2020/12/18 04:01:13;;;;;;;41.28;17.30;;;;;;;14.53;57.68;154936.02;1711669;84;21320;-71
2020/12/18 04:03:46;;;;;;;42.70;16.15;;;;;;;14.55;57.62;154941.30;1712917;82;21332;-71
2020/12/18 04:06:20;;;;;;;43.20;17.35;;;;;;;14.62;57.44;154961.03;1712760;84;21353;-71
2020/12/18 04:08:53;;;;;;;41.83;17.57;;;;;;;14.70;57.52;154982.06;1689683;82;21250;-71
2020/12/18 04:11:30;;;;;;;41.25;16.95;;;;;;;14.65;57.47;154967.59;1680085;85;21845;-71
2020/12/18 04:14:04;;;;;;;39.38;16.35;;;;;;;14.73;57.51;154989.97;1710775;84;21344;-71
2020/12/18 04:16:38;;;;;;;43.98;16.75;;;;;;;14.75;57.32;154995.25;1710944;84;21858;-71
2020/12/18 04:19:10;;;;;;;38.83;16.32;;;;;;;14.70;57.25;154982.06;1712532;84;21189;-71
2020/12/18 04:21:43;;;;;;;44.50;16.75;;;;;;;14.72;57.45;154986.00;1712569;82;21356;-71
2020/12/18 04:24:17;;;;;;;42.23;17.17;;;;;;;14.75;57.47;154995.25;1712105;82;21234;-71
2020/12/18 04:26:51;;;;;;;41.48;16.82;;;;;;;14.75;57.53;154995.25;1711825;82;21356;-71
2020/12/18 04:29:25;;;;;;;40.05;17.00;;;;;;;15.00;57.11;155059.70;1712363;84;21198;-72
2020/12/18 04:31:59;;;;;;;39.40;16.80;;;;;;;15.00;57.06;155061.00;1712594;84;21182;-72
2020/12/18 04:34:31;;;;;;;41.40;17.82;;;;;;;15.00;56.88;155059.70;1712612;84;21380;-73
2020/12/18 04:37:09;;;;;;;41.95;17.77;;;;;;;14.97;56.92;155051.80;1710568;84;21333;-73
2020/12/18 04:39:59;;;;;;;47.58;21.20;;;;;;;14.95;57.15;155047.86;1684478;85;21340;-73
2020/12/18 04:42:35;;;;;;;45.03;19.15;;;;;;;14.81;57.17;155009.72;1684145;85;21422;-73
2020/12/18 04:45:07;;;;;;;42.95;17.70;;;;;;;14.76;57.02;154996.53;1662817;85;21205;-73
2020/12/18 04:47:44;;;;;;;44.65;18.15;;;;;;;14.67;56.97;154972.88;1719923;83;21743;-73
2020/12/18 04:50:16;;;;;;;41.70;17.90;;;;;;;14.75;56.70;154995.25;1728045;81;21205;-73
2020/12/18 04:52:50;;;;;;;40.75;16.82;;;;;;;14.98;56.36;155055.78;1725362;81;21800;-73
2020/12/18 04:55:25;;;;;;;44.50;17.30;;;;;;;15.08;56.26;155082.09;1728088;83;21306;-73
2020/12/18 04:58:06;;;;;;;36.77;16.87;;;;;;;15.00;56.43;155059.70;1722604;83;21861;-71
2020/12/18 05:00:38;;;;;;;44.93;17.55;;;;;;;15.09;56.24;155083.38;1728222;83;21331;-71
2020/12/18 05:03:22;;;;;;;41.68;17.30;;;;;;;15.06;56.34;155075.47;1701250;83;21256;-71
2020/12/18 05:05:54;;;;;;;41.92;17.62;;;;;;;15.21;56.11;155116.31;1727503;83;21751;-71
2020/12/18 05:08:28;;;;;;;42.60;18.67;;;;;;;15.30;55.96;155138.70;1701487;83;21177;-71
2020/12/18 05:11:08;;;;;;;42.73;19.15;;;;;;;15.28;55.88;155133.48;1728221;83;21719;-70
2020/12/18 05:13:41;;;;;;;41.55;18.50;;;;;;;15.25;55.93;155126.86;1701605;83;21186;-71
2020/12/18 05:16:14;;;;;;;38.30;17.05;;;;;;;15.21;55.97;155114.97;1728158;83;21237;-71
2020/12/18 05:19:05;;;;;;;38.45;16.35;;;;;;;15.22;56.01;155117.61;1728025;83;21237;-71
2020/12/18 05:21:42;;;;;;;36.38;16.20;;;;;;;14.82;56.48;155013.64;1725956;81;21182;-71
2020/12/18 05:24:16;;;;;;;35.05;15.83;;;;;;;15.34;55.74;155149.25;1700322;83;21716;-71
2020/12/18 05:26:50;;;;;;;33.90;15.03;;;;;;;15.49;55.24;155191.41;1690887;85;21710;-71
2020/12/18 05:29:22;;;;;;;33.88;13.83;;;;;;;15.51;55.13;155196.63;1728099;83;21207;-71
2020/12/18 05:32:14;;;;;;;36.60;15.45;;;;;;;15.58;54.83;155215.09;1711279;82;21696;-71
2020/12/18 05:34:51;;;;;;;34.58;14.53;;;;;;;15.56;54.83;155209.81;1726645;83;21205;-71
2020/12/18 05:37:40;;;;;;;31.10;14.68;;;;;;;15.55;54.97;155207.17;1726081;82;21230;-71
2020/12/18 05:40:20;;;;;;;34.95;15.85;;;;;;;15.54;55.03;155203.25;1698887;84;21260;-71
2020/12/18 05:43:14;;;;;;;36.90;15.78;;;;;;;15.61;54.91;155221.66;1699116;84;21692;-71
2020/12/18 05:45:46;;;;;;;33.75;15.23;;;;;;;15.47;55.09;155186.13;1700826;83;21213;-72
2020/12/18 05:48:36;;;;;;;35.78;14.83;;;;;;;15.49;55.11;155190.06;1702917;84;21332;-71
2020/12/18 05:51:26;;;;;;;28.07;13.03;;;;;;;15.41;55.13;155170.30;1712412;84;21729;-71
2020/12/18 05:54:17;;;;;;;32.38;15.38;;;;;;;14.93;55.66;155041.30;1712803;84;21336;-71
2020/12/18 05:56:57;;;;;;;34.90;15.48;;;;;;;14.73;56.26;154989.97;1712017;84;21313;-72
2020/12/18 05:59:29;;;;;;;36.00;17.20;;;;;;;14.48;56.39;154924.19;1712622;84;21238;-72
2020/12/18 06:02:07;;;;;;;38.20;17.23;;;;;;;14.31;56.74;154878.16;1711960;83;21183;-76
2020/12/18 06:04:59;;;;;;;40.43;16.25;;;;;;;14.24;56.91;154859.70;1660979;84;21324;-78
2020/12/18 06:07:37;;;;;;;39.75;19.37;;;;;;;14.32;56.98;154879.44;1703385;84;21336;-77
2020/12/18 06:10:13;;;;;;;42.93;17.45;;;;;;;14.17;57.11;154841.31;1711827;84;21178;-77
2020/12/18 06:12:49;;;;;;;39.55;17.05;;;;;;;14.17;57.30;154840.03;1688046;84;21361;-78
2020/12/18 06:15:21;;;;;;;37.03;17.23;;;;;;;14.34;57.27;154884.72;1689898;84;21324;-78
2020/12/18 06:17:55;;;;;;;39.27;17.73;;;;;;;14.40;57.17;154901.81;1711012;84;21325;-78
2020/12/18 06:20:27;;;;;;;33.40;16.80;;;;;;;14.39;57.17;154899.19;1712253;82;21332;-76
2020/12/18 06:23:03;;;;;;;32.28;15.38;;;;;;;14.37;57.49;154893.91;1712587;84;21334;-77
2020/12/18 06:25:46;;;;;;;32.30;16.23;;;;;;;14.40;57.57;154901.81;1710345;84;21190;-77
2020/12/18 06:28:37;;;;;;;34.48;15.38;;;;;;;14.23;57.56;154857.13;1712550;84;21367;-77
2020/12/18 06:31:27;;;;;;;35.20;15.93;;;;;;;14.35;57.46;154887.34;1711720;82;21653;-76
2020/12/18 06:34:05;;;;;;;35.25;15.72;;;;;;;14.30;57.39;154875.52;1687585;84;21185;-77
2020/12/18 06:36:52;;;;;;;38.67;16.50;;;;;;;14.26;57.31;154863.69;1664356;84;21193;-77
2020/12/18 06:39:36;;;;;;;35.58;16.32;;;;;;;14.17;57.55;154841.31;1699444;84;21665;-76
2020/12/18 06:42:29;;;;;;;37.78;16.95;;;;;;;14.14;57.62;154832.13;1671111;84;21202;-76
2020/12/18 06:45:20;;;;;;;31.23;15.58;;;;;;;14.16;57.69;154838.69;1697310;84;21403;-74
2020/12/18 06:48:29;;;;;;;36.65;16.17;;;;;;;14.24;57.78;154859.70;1687471;83;21276;-77
2020/12/18 06:51:29;;;;;;;33.78;14.95;;;;;;;14.41;57.49;154903.16;1683023;83;21335;-77
2020/12/18 06:54:12;;;;;;;33.15;14.73;;;;;;;14.50;57.22;154928.13;1713625;83;21273;-71
2020/12/18 06:56:46;;;;;;;28.27;13.35;;;;;;;14.52;57.13;154934.67;1719369;81;21395;-72
2020/12/18 06:59:28;;;;;;;32.88;14.43;;;;;;;14.53;57.02;154936.02;1706903;81;21193;-73
2020/12/18 07:02:00;;;;;;;27.48;13.05;;;;;;;14.53;57.09;154936.02;1704484;81;21162;-73
2020/12/18 07:04:34;;;;;;;29.20;13.70;;;;;;;14.56;57.00;154945.22;1701935;83;21205;-74
2020/12/18 07:07:22;;;;;;;27.15;13.80;;;;;;;14.52;57.19;154933.39;1650097;83;21395;-75
2020/12/18 07:09:59;;;;;;;27.30;13.08;;;;;;;14.51;57.35;154930.75;1708168;83;21752;-78
2020/12/18 07:12:38;;;;;;;27.58;12.55;;;;;;;14.60;57.25;154954.41;1704064;81;21216;-73
2020/12/18 07:15:13;;;;;;;27.52;12.05;;;;;;;14.64;57.31;154964.97;1703512;83;22451;-73
2020/12/18 07:17:52;;;;;;;26.30;13.00;;;;;;;14.60;57.34;154955.77;1707619;83;21272;-73
2020/12/18 07:20:29;;;;;;;28.00;12.15;;;;;;;14.68;57.26;154975.50;1702556;81;21379;-75
2020/12/18 07:23:04;;;;;;;29.55;12.58;;;;;;;14.65;57.48;154967.59;1706492;81;21197;-73
2020/12/18 07:25:37;;;;;;;26.85;13.60;;;;;;;14.64;57.58;154964.97;1704073;83;21180;-75
2020/12/18 07:28:10;;;;;;;27.70;13.32;;;;;;;14.65;57.72;154967.59;1703488;81;21259;-78
2020/12/18 07:30:45;;;;;;;27.07;12.78;;;;;;;14.68;57.70;154976.80;1702888;82;21224;-81
2020/12/18 07:33:19;;;;;;;25.23;11.65;;;;;;;14.64;57.73;154964.97;1707259;81;21248;-82
2020/12/18 07:35:55;;;;;;;27.15;12.65;;;;;;;14.60;57.76;154954.41;1702233;81;21244;-76
2020/12/18 07:38:32;;;;;;;30.72;12.63;;;;;;;14.62;57.80;154959.69;1718762;83;21236;-80
2020/12/18 07:41:07;;;;;;;26.90;13.08;;;;;;;14.52;57.48;154934.67;1724343;83;21162;-80
2020/12/18 07:43:39;;;;;;;28.73;13.00;;;;;;;14.52;57.47;154933.39;1727164;81;21327;-79
2020/12/18 07:46:16;;;;;;;32.93;14.00;;;;;;;14.55;57.47;154941.30;1719276;81;21197;-80
2020/12/18 07:48:49;;;;;;;26.87;12.70;;;;;;;14.40;57.51;154901.81;1699095;83;21407;-80
2020/12/18 07:51:21;;;;;;;30.52;14.23;;;;;;;14.44;57.45;154912.36;1672887;84;21456;-80
2020/12/18 07:53:55;;;;;;;30.57;11.97;;;;;;;14.48;57.29;154924.19;1699396;83;21245;-79
2020/12/18 07:56:27;;;;;;;30.02;12.70;;;;;;;14.40;57.57;154901.81;1680761;84;21226;-80
2020/12/18 07:59:06;;;;;;;29.40;13.93;;;;;;;14.36;57.51;154889.98;1700124;83;21701;-80
2020/12/18 08:01:38;;;;;;;29.32;13.00;;;;;;;14.24;59.26;154859.70;1691313;84;21338;-79
2020/12/18 08:04:12;;;;;;;29.72;13.18;;;;;;;14.13;58.11;154829.48;1726745;83;21245;-79
2020/12/18 08:06:45;;;;;;;30.85;13.48;;;;;;;14.15;58.23;154836.05;1726936;83;21192;-80
2020/12/18 08:09:19;;;;;;;27.07;12.25;;;;;;;14.21;57.98;154850.52;1726865;83;21795;-80
2020/12/18 08:11:53;;;;;;;27.48;13.20;;;;;;;14.15;57.95;154836.05;1723660;81;21743;-84
2020/12/18 08:14:25;;;;;;;29.70;13.03;;;;;;;14.10;57.89;154821.53;1716032;83;21186;-78
2020/12/18 08:16:58;;;;;;;26.27;12.07;;;;;;;14.19;57.88;154846.58;1705344;83;21288;-77
2020/12/18 08:19:30;;;;;;;26.77;11.53;;;;;;;14.28;57.65;154868.95;1669502;84;21342;-74
2020/12/18 08:22:03;;;;;;;25.50;12.10;;;;;;;14.27;57.58;154867.61;1699666;83;21703;-75
2020/12/18 08:24:37;;;;;;;29.57;13.30;;;;;;;14.34;57.77;154886.06;1669583;84;21350;-78
2020/12/18 08:27:25;;;;;;;25.97;12.50;;;;;;;14.35;57.62;154888.64;1711592;82;21173;-77
2020/12/18 08:29:54;;;;;;;26.05;12.85;;;;;;;14.23;57.64;154855.78;1706372;82;21308;-72
2020/12/18 08:32:29;;;;;;;27.05;11.73;;;;;;;14.22;57.86;154853.16;1703223;83;21268;-77
2020/12/18 08:35:06;;;;;;;30.55;13.03;;;;;;;14.30;57.70;154874.17;1680819;84;21213;-81
2020/12/18 08:37:39;;;;;;;28.45;12.30;;;;;;;14.31;57.53;154878.16;1677774;83;21287;-69
2020/12/18 08:40:24;;;;;;;27.98;13.00;;;;;;;14.48;57.37;154922.84;1702895;83;21173;-81
2020/12/18 08:43:02;;;;;;;27.87;12.40;;;;;;;14.42;57.57;154905.73;1707326;83;21674;-78
2020/12/18 08:45:44;;;;;;;29.20;13.10;;;;;;;14.40;57.51;154901.81;1703533;82;21188;-80
2020/12/18 08:48:29;;;;;;;36.42;13.50;;;;;;;14.35;57.57;154888.64;1710474;81;21232;-80
2020/12/18 08:51:02;;;;;;;28.38;13.28;;;;;;;14.35;57.59;154888.64;1702030;81;21303;-72
2020/12/18 08:53:36;;;;;;;28.62;13.00;;;;;;;14.27;57.48;154867.61;1701935;81;21263;-78
2020/12/18 08:56:13;;;;;;;25.45;11.95;;;;;;;14.13;59.06;154829.48;1707104;83;21224;-74
2020/12/18 08:58:45;;;;;;;30.12;11.68;;;;;;;13.97;60.79;154788.69;1703381;81;21248;-76
2020/12/18 09:01:24;;;;;;;25.55;11.35;;;;;;;13.92;59.07;154774.22;1704915;83;21268;-80
2020/12/18 09:03:59;;;;;;;22.65;10.13;;;;;;;13.77;59.02;154736.06;1701101;82;21262;-78
2020/12/18 09:06:42;;;;;;;22.02;10.05;;;;;;;13.62;59.24;154696.66;1704005;81;21260;-78
2020/12/18 09:09:17;;;;;;;27.25;12.10;;;;;;;13.70;59.63;154716.38;1703223;83;21811;-74
2020/12/18 09:11:51;;;;;;;27.73;11.93;;;;;;;13.71;59.87;154720.31;1708918;81;21677;-80
2020/12/18 09:14:30;;;;;;;24.50;10.63;;;;;;;13.81;59.50;154746.59;1710208;81;21197;-76
2020/12/18 09:17:04;;;;;;;23.27;10.38;;;;;;;14.00;59.37;154795.23;1717992;81;21771;-76
2020/12/18 09:19:48;;;;;;;24.60;10.65;;;;;;;14.41;58.71;154903.16;1711652;81;21280;-81
2020/12/18 09:22:22;;;;;;;20.72;10.13;;;;;;;14.54;58.75;154938.66;1706110;83;21193;-75
2020/12/18 09:25:05;;;;;;;22.93;10.15;;;;;;;14.51;58.53;154930.75;1714035;81;21754;-78
2020/12/18 09:27:37;;;;;;;22.27;10.58;;;;;;;15.00;57.91;155061.00;1712935;81;21192;-81
2020/12/18 09:30:10;;;;;;;18.17;9.58;;;;;;;15.29;57.03;155137.41;1709778;81;21220;-80
2020/12/18 09:32:43;;;;;;;18.35;10.30;;;;;;;15.39;56.45;155163.73;1705703;81;21232;-79
2020/12/18 09:35:17;;;;;;;22.50;9.50;;;;;;;14.95;56.68;155047.86;1703460;83;21240;-81
2020/12/18 09:37:49;;;;;;;18.57;8.58;;;;;;;15.03;57.08;155068.91;1710908;83;21245;-80
2020/12/18 09:40:23;;;;;;;23.65;10.23;;;;;;;14.92;56.52;155038.66;1706490;81;21204;-80
2020/12/18 09:42:58;;;;;;;21.30;9.33;;;;;;;14.79;56.98;155005.73;1704242;83;21208;-82
2020/12/18 09:45:32;;;;;;;18.42;7.80;;;;;;;14.78;57.00;155001.81;1702613;81;21774;-81
2020/12/18 09:48:05;;;;;;;17.17;7.85;;;;;;;14.90;56.79;155033.39;1701217;81;21819;-82
2020/12/18 09:50:38;;;;;;;13.65;6.20;;;;;;;14.96;56.02;155049.16;1702927;81;21333;-81
2020/12/18 09:53:10;;;;;;;13.30;6.10;;;;;;;14.64;55.63;154966.25;1715761;81;21224;-78
2020/12/18 09:55:43;;;;;;;12.78;6.60;;;;;;;14.41;55.85;154904.45;1708579;83;21188;-78
2020/12/18 09:58:16;;;;;;;14.03;7.10;;;;;;;14.25;55.91;154862.34;1704288;83;21196;-78
2020/12/18 10:00:53;;;;;;;17.60;7.45;;;;;;;14.19;56.01;154846.58;1704794;81;21252;-81
2020/12/18 10:03:26;;;;;;;15.72;6.70;;;;;;;14.23;56.33;154855.78;1708512;81;21200;-83
2020/12/18 10:06:00;;;;;;;16.75;6.75;;;;;;;14.36;57.04;154891.28;1716716;82;21653;-78
2020/12/18 10:08:34;;;;;;;13.78;6.60;;;;;;;14.50;56.89;154929.45;1706582;83;21224;-78
2020/12/18 10:11:08;;;;;;;14.05;6.78;;;;;;;14.55;56.54;154941.30;1669664;84;21405;-80
2020/12/18 10:13:40;;;;;;;13.40;6.95;;;;;;;14.83;56.86;155016.28;1670070;83;21472;-76
2020/12/18 10:16:13;;;;;;;15.60;7.62;;;;;;;14.46;57.03;154917.63;1675049;83;21401;-82
2020/12/18 10:18:45;;;;;;;16.55;7.40;;;;;;;14.21;57.59;154850.52;1661056;85;21733;-82
2020/12/18 10:21:19;;;;;;;16.90;7.87;;;;;;;14.35;57.73;154887.34;1699908;81;21771;-76
2020/12/18 10:23:52;;;;;;;14.98;7.17;;;;;;;14.43;57.09;154909.72;1702532;81;21247;-75
2020/12/18 10:26:32;;;;;;;16.02;7.30;;;;;;;14.43;56.94;154911.02;1700218;81;21279;-74
2020/12/18 10:29:07;;;;;;;15.48;6.05;;;;;;;14.50;57.57;154928.13;1701243;81;21236;-74
2020/12/18 10:31:40;;;;;;;13.43;6.87;;;;;;;14.54;56.99;154939.94;1702547;83;21266;-71
2020/12/18 10:34:14;;;;;;;12.85;7.20;;;;;;;14.48;57.19;154922.84;1701045;82;21248;-75
2020/12/18 10:36:55;;;;;;;12.75;6.60;;;;;;;14.43;56.84;154911.02;1705518;81;21708;-75
2020/12/18 10:39:32;;;;;;;14.07;6.65;;;;;;;14.35;56.99;154888.64;1705234;83;21255;-75
2020/12/18 10:42:08;;;;;;;14.55;6.72;;;;;;;14.36;57.10;154891.28;1705267;81;21260;-74
2020/12/18 10:44:46;;;;;;;14.75;6.78;;;;;;;14.33;56.92;154882.08;1705225;81;21201;-74
2020/12/18 10:47:18;;;;;;;11.78;6.00;;;;;;;14.26;56.85;154864.97;1697686;84;21332;-71
2020/12/18 10:49:51;;;;;;;13.10;6.00;;;;;;;14.21;56.64;154851.86;1676865;83;21853;-71
2020/12/18 10:52:24;;;;;;;12.55;5.97;;;;;;;14.05;56.74;154809.70;1727910;83;21177;-73
2020/12/18 10:54:57;;;;;;;12.68;6.53;;;;;;;14.19;56.82;154845.25;1712475;81;21177;-73
2020/12/18 10:57:30;;;;;;;10.60;5.42;;;;;;;14.09;56.89;154820.23;1690941;84;21212;-73
2020/12/18 11:00:03;;;;;;;11.20;5.55;;;;;;;14.01;56.54;154797.88;1661461;86;21246;-73
2020/12/18 11:02:35;;;;;;;10.60;4.80;;;;;;;13.98;56.58;154791.31;1682677;85;21176;-73
2020/12/18 11:05:08;;;;;;;10.93;5.30;;;;;;;14.01;56.66;154797.88;1727996;83;21257;-73
2020/12/18 11:07:40;;;;;;;8.60;4.65;;;;;;;13.86;56.83;154758.42;1728201;81;21352;-74
2020/12/18 11:10:13;;;;;;;8.60;5.15;;;;;;;14.08;56.83;154817.61;1727998;83;21178;-73
2020/12/18 11:12:45;;;;;;;10.10;5.55;;;;;;;14.04;56.25;154807.06;1728038;81;21248;-74
2020/12/18 11:15:18;;;;;;;7.20;4.10;;;;;;;13.54;57.14;154674.31;1727952;83;21209;-74
2020/12/18 11:17:50;;;;;;;9.43;5.35;;;;;;;13.81;56.93;154746.59;1727914;82;21248;-73
2020/12/18 11:20:23;;;;;;;9.68;4.95;;;;;;;13.81;56.70;154746.59;1727946;83;21205;-73
2020/12/18 11:22:55;;;;;;;6.62;4.42;;;;;;;13.88;56.34;154763.69;1727813;81;21256;-74
2020/12/18 11:25:27;;;;;;;8.48;4.53;;;;;;;13.85;56.28;154757.12;1699115;83;21205;-74
2020/12/18 11:28:00;;;;;;;9.55;4.22;;;;;;;14.04;55.91;154805.78;1699277;84;21306;-73
2020/12/18 11:30:32;;;;;;;8.93;4.87;;;;;;;14.08;56.15;154817.61;1698858;83;21746;-74
2020/12/18 11:33:05;;;;;;;8.03;4.33;;;;;;;14.08;56.23;154816.27;1700076;83;21212;-74
2020/12/18 11:35:37;;;;;;;8.38;4.58;;;;;;;14.00;56.23;154796.59;1727848;83;21224;-73
2020/12/18 11:38:09;;;;;;;11.50;5.15;;;;;;;14.40;55.90;154900.53;1727923;83;21248;-74
2020/12/18 11:40:42;;;;;;;10.05;4.87;;;;;;;14.29;56.29;154871.59;1727911;82;21205;-73
2020/12/18 11:43:14;;;;;;;7.97;4.33;;;;;;;14.38;56.05;154895.25;1728290;83;21323;-74
2020/12/18 11:45:46;;;;;;;11.05;5.42;;;;;;;14.38;56.04;154895.25;1725788;81;21244;-74
2020/12/18 11:48:19;;;;;;;9.18;5.40;;;;;;;14.33;55.97;154883.42;1727399;83;21197;-73
2020/12/18 11:50:51;;;;;;;9.10;5.10;;;;;;;14.27;56.04;154866.31;1727773;83;21231;-74